createdAt,value
2022-07-29T00:01:02.130Z,3.33
2022-07-29T00:03:28.722Z,3.25
2022-07-29T00:05:55.398Z,3.45
2022-07-29T00:08:22.039Z,3.47
2022-07-29T00:10:50.572Z,3.78
2022-07-29T00:13:17.164Z,3.72
2022-07-29T00:15:43.710Z,3.20
2022-07-29T00:18:10.299Z,4.30
2022-07-29T00:20:36.962Z,3.05
2022-07-29T00:23:03.787Z,3.15
2022-07-29T00:25:30.322Z,3.97
2022-07-29T00:28:00.403Z,3.33
2022-07-29T00:30:27.011Z,3.40
2022-07-29T00:32:53.643Z,3.90
2022-07-29T00:35:38.936Z,3.75
2022-07-29T00:38:05.552Z,4.53
2022-07-29T00:40:32.139Z,3.25
2022-07-29T00:42:58.794Z,3.55
2022-07-29T00:45:26.664Z,3.75
2022-07-29T00:47:53.268Z,4.32
2022-07-29T00:50:19.866Z,3.72
2022-07-29T00:52:46.485Z,3.85
2022-07-29T00:55:15.059Z,3.47
2022-07-29T00:57:42.743Z,3.83
2022-07-29T01:00:18.815Z,3.80
2022-07-29T01:02:48.398Z,4.00
2022-07-29T01:05:15.966Z,3.53
2022-07-29T01:07:42.923Z,3.33
2022-07-29T01:10:10.970Z,3.53
2022-07-29T01:12:38.499Z,3.10
2022-07-29T01:15:07.538Z,3.40
2022-07-29T01:17:53.636Z,3.72
2022-07-29T01:20:37.715Z,3.25
2022-07-29T01:23:10.643Z,3.03
2022-07-29T01:25:59.021Z,2.83
2022-07-29T01:28:44.784Z,2.90
2022-07-29T01:31:25.042Z,3.53
2022-07-29T01:33:59.246Z,2.80
2022-07-29T01:36:50.051Z,2.95
2022-07-29T01:39:28.680Z,2.53
2022-07-29T01:42:19.847Z,2.90
2022-07-29T01:45:12.387Z,2.80
2022-07-29T01:48:01.146Z,2.60
2022-07-29T01:50:34.872Z,3.03
2022-07-29T01:53:04.947Z,3.92
2022-07-29T01:55:41.055Z,2.80
2022-07-29T01:58:08.176Z,2.90
2022-07-29T02:00:35.732Z,3.10
2022-07-29T02:03:07.264Z,2.90
2022-07-29T02:05:34.868Z,3.35
2022-07-29T02:08:02.367Z,2.90
2022-07-29T02:10:31.394Z,3.42
2022-07-29T02:12:58.995Z,3.35
2022-07-29T02:15:27.709Z,3.67
2022-07-29T02:18:08.254Z,2.83
2022-07-29T02:20:35.511Z,2.50
2022-07-29T02:23:03.963Z,2.78
2022-07-29T02:25:37.665Z,2.85
2022-07-29T02:28:06.837Z,3.58
2022-07-29T02:30:34.308Z,3.30
2022-07-29T02:33:01.719Z,2.65
2022-07-29T02:35:28.533Z,2.75
2022-07-29T02:38:21.623Z,3.20
2022-07-29T02:40:49.995Z,2.63
2022-07-29T02:43:16.886Z,2.75
2022-07-29T02:45:43.846Z,2.90
2022-07-29T02:48:16.261Z,3.28
2022-07-29T02:50:51.381Z,3.40
2022-07-29T02:53:25.438Z,3.30
2022-07-29T02:56:01.304Z,2.63
2022-07-29T02:59:00.478Z,2.20
2022-07-29T03:01:29.916Z,2.90
2022-07-29T03:03:56.626Z,3.47
2022-07-29T03:06:37.618Z,2.95
2022-07-29T03:09:12.504Z,2.45
2022-07-29T03:11:49.914Z,2.88
2022-07-29T03:14:19.455Z,2.25
2022-07-29T03:16:46.797Z,2.75
2022-07-29T03:19:14.222Z,2.45
2022-07-29T03:21:40.831Z,3.47
2022-07-29T03:24:10.597Z,2.17
2022-07-29T03:26:37.965Z,3.30
2022-07-29T03:29:04.586Z,3.20
2022-07-29T03:31:32.156Z,2.75
2022-07-29T03:34:00.688Z,3.10
2022-07-29T03:36:27.423Z,2.50
2022-07-29T03:38:54.430Z,2.55
2022-07-29T03:41:23.164Z,2.70
2022-07-29T03:43:50.937Z,2.90
2022-07-29T03:46:18.448Z,2.10
2022-07-29T03:48:48.030Z,2.53
2022-07-29T03:51:14.735Z,2.50
2022-07-29T03:53:41.400Z,3.10
2022-07-29T03:56:09.040Z,2.83
2022-07-29T03:58:35.839Z,2.50
2022-07-29T04:01:02.757Z,2.17
2022-07-29T04:03:29.424Z,2.47
2022-07-29T04:06:04.425Z,2.10
2022-07-29T04:08:31.313Z,2.70
2022-07-29T04:10:58.012Z,2.65
2022-07-29T04:13:24.653Z,2.53
2022-07-29T04:15:51.310Z,2.45
2022-07-29T04:18:17.979Z,2.70
2022-07-29T04:20:44.628Z,2.08
2022-07-29T04:23:11.262Z,2.22
2022-07-29T04:25:39.610Z,2.45
2022-07-29T04:28:06.859Z,2.47
2022-07-29T04:30:34.575Z,3.22
2022-07-29T04:33:02.308Z,2.20
2022-07-29T04:35:29.958Z,2.10
2022-07-29T04:37:56.649Z,2.47
2022-07-29T04:40:23.430Z,2.08
2022-07-29T04:42:50.015Z,1.77
2022-07-29T04:45:16.632Z,2.67
2022-07-29T04:47:49.347Z,2.08
2022-07-29T04:50:15.964Z,2.08
2022-07-29T04:52:42.790Z,2.22
2022-07-29T04:55:10.474Z,2.20
2022-07-29T04:57:37.119Z,2.08
2022-07-29T05:00:05.403Z,2.17
2022-07-29T05:02:32.152Z,2.20
2022-07-29T05:04:58.770Z,2.10
2022-07-29T05:07:25.392Z,1.98
2022-07-29T05:09:52.048Z,1.52
2022-07-29T05:12:18.590Z,2.05
2022-07-29T05:14:45.348Z,2.15
2022-07-29T05:17:11.984Z,1.90
2022-07-29T05:19:39.767Z,2.40
2022-07-29T05:22:06.600Z,2.13
2022-07-29T05:24:33.159Z,3.47
2022-07-29T05:26:59.891Z,5.50
2022-07-29T05:29:44.993Z,2.80
2022-07-29T05:32:13.343Z,3.10
2022-07-29T05:34:50.970Z,9.45
2022-07-29T05:37:20.190Z,5.70
2022-07-29T05:39:50.351Z,5.78
2022-07-29T05:42:17.491Z,4.15
2022-07-29T05:44:44.059Z,2.35
2022-07-29T05:47:10.648Z,1.92
2022-07-29T05:49:37.358Z,1.95
2022-07-29T05:52:04.283Z,2.10
2022-07-29T05:54:30.926Z,2.45
2022-07-29T05:56:57.603Z,2.00
2022-07-29T05:59:29.802Z,2.47
2022-07-29T06:01:58.110Z,1.58
2022-07-29T06:04:25.113Z,1.70
2022-07-29T06:06:51.734Z,2.00
2022-07-29T06:09:18.746Z,4.10
2022-07-29T06:11:45.462Z,3.10
2022-07-29T06:14:12.230Z,3.05
2022-07-29T06:16:39.294Z,1.92
2022-07-29T06:19:05.922Z,2.00
2022-07-29T06:21:32.515Z,1.90
2022-07-29T06:23:59.340Z,1.70
2022-07-29T06:26:30.348Z,1.73
2022-07-29T06:29:04.620Z,2.13
2022-07-29T06:31:31.194Z,1.80
2022-07-29T06:33:57.802Z,2.08
2022-07-29T06:36:25.078Z,1.77
2022-07-29T06:38:52.122Z,2.40
2022-07-29T06:41:19.219Z,2.42
2022-07-29T06:43:52.305Z,2.20
2022-07-29T06:46:21.936Z,1.58
2022-07-29T06:48:49.655Z,2.30
2022-07-29T06:51:22.713Z,1.90
2022-07-29T06:53:59.500Z,1.80
2022-07-29T06:56:29.284Z,2.10
2022-07-29T06:58:55.903Z,2.17
2022-07-29T07:01:22.659Z,1.73
2022-07-29T07:03:49.320Z,2.15
2022-07-29T07:06:16.092Z,2.15
2022-07-29T07:08:42.703Z,2.63
2022-07-29T07:11:09.751Z,2.65
2022-07-29T07:13:36.743Z,2.10
2022-07-29T07:16:04.728Z,2.45
2022-07-29T07:18:31.484Z,2.40
2022-07-29T07:20:58.665Z,2.63
2022-07-29T07:23:25.798Z,2.88
2022-07-29T07:25:52.578Z,3.03
2022-07-29T07:28:19.636Z,2.78
2022-07-29T07:30:52.562Z,3.65
2022-07-29T07:33:19.402Z,2.42
2022-07-29T07:35:50.474Z,2.30
2022-07-29T07:38:18.315Z,2.58
2022-07-29T07:40:47.369Z,2.67
2022-07-29T07:43:13.988Z,3.03
2022-07-29T07:45:41.261Z,2.55
2022-07-29T07:48:07.907Z,2.65
2022-07-29T07:50:34.952Z,2.83
2022-07-29T07:53:03.116Z,2.47
2022-07-29T07:55:42.409Z,3.25
2022-07-29T07:58:16.365Z,3.33
2022-07-29T08:00:42.945Z,2.50
2022-07-29T08:03:16.512Z,2.38
2022-07-29T08:05:44.572Z,2.63
2022-07-29T08:08:11.149Z,2.47
2022-07-29T08:10:53.255Z,2.80
2022-07-29T08:13:25.260Z,2.83
2022-07-29T08:16:12.511Z,2.72
2022-07-29T08:18:40.511Z,2.35
2022-07-29T08:21:07.474Z,2.75
2022-07-29T08:23:47.841Z,3.00
2022-07-29T08:26:17.448Z,2.75
2022-07-29T08:28:46.843Z,2.88
2022-07-29T08:31:14.713Z,3.00
2022-07-29T08:33:41.483Z,2.00
2022-07-29T08:36:08.123Z,3.00
2022-07-29T08:38:34.815Z,3.05
2022-07-29T08:41:02.306Z,2.88
2022-07-29T08:43:31.932Z,2.72
2022-07-29T08:45:58.755Z,2.97
2022-07-29T08:48:25.758Z,3.25
2022-07-29T08:50:57.047Z,3.03
2022-07-29T08:53:27.368Z,3.35
2022-07-29T08:55:54.216Z,2.75
2022-07-29T08:58:23.268Z,2.38
2022-07-29T09:00:56.680Z,2.85
2022-07-29T09:03:26.163Z,3.10
2022-07-29T09:05:53.058Z,2.47
2022-07-29T09:08:19.953Z,2.55
2022-07-29T09:10:46.759Z,2.22
2022-07-29T09:13:13.430Z,2.70
2022-07-29T09:15:40.263Z,3.25
2022-07-29T09:18:06.936Z,3.63
2022-07-29T09:20:52.357Z,3.47
2022-07-29T09:23:23.290Z,2.90
2022-07-29T09:25:51.075Z,3.00
2022-07-29T09:28:19.313Z,3.03
2022-07-29T09:30:57.464Z,2.50
2022-07-29T09:33:25.318Z,3.15
2022-07-29T09:36:04.120Z,3.15
2022-07-29T09:38:33.812Z,2.83
2022-07-29T09:41:05.750Z,3.20
2022-07-29T09:43:33.386Z,3.03
2022-07-29T09:46:13.649Z,2.95
2022-07-29T09:48:40.461Z,3.33
2022-07-29T09:51:20.694Z,3.85
2022-07-29T09:53:49.142Z,2.80
2022-07-29T09:56:15.784Z,3.20
2022-07-29T09:58:42.473Z,2.83
2022-07-29T10:01:09.189Z,3.00
2022-07-29T10:03:52.468Z,2.83
2022-07-29T10:06:19.137Z,2.95
2022-07-29T10:08:45.718Z,2.70
2022-07-29T10:11:17.417Z,2.80
2022-07-29T10:13:45.593Z,3.00
2022-07-29T10:16:13.988Z,3.53
2022-07-29T10:18:42.159Z,3.17
2022-07-29T10:21:09.020Z,3.03
2022-07-29T10:23:46.346Z,3.05
2022-07-29T10:26:15.486Z,2.83
2022-07-29T10:28:42.136Z,3.30
2022-07-29T10:31:14.917Z,3.38
2022-07-29T10:34:06.157Z,3.55
2022-07-29T10:36:51.608Z,3.03
2022-07-29T10:42:10.820Z,3.72
2022-07-29T10:44:41.379Z,3.08
2022-07-29T10:47:08.614Z,2.75
2022-07-29T10:49:36.735Z,3.25
2022-07-29T10:52:10.355Z,2.80
2022-07-29T10:54:42.541Z,3.75
2022-07-29T10:57:14.850Z,2.83
2022-07-29T10:59:44.205Z,3.40
2022-07-29T11:02:43.790Z,3.30
2022-07-29T11:05:15.837Z,3.33
2022-07-29T11:08:19.523Z,3.22
2022-07-29T11:10:47.991Z,3.53
2022-07-29T11:13:44.400Z,4.38
2022-07-29T11:16:11.381Z,4.03
2022-07-29T11:19:13.356Z,3.17
2022-07-29T11:21:53.768Z,3.70
2022-07-29T11:24:35.523Z,4.00
2022-07-29T11:27:18.205Z,3.33
2022-07-29T11:29:50.770Z,3.43
2022-07-29T11:32:23.176Z,3.60
2022-07-29T11:34:51.645Z,4.22
2022-07-29T11:37:27.917Z,3.33
2022-07-29T11:40:01.527Z,3.78
2022-07-29T11:42:34.316Z,3.58
2022-07-29T11:45:04.302Z,3.55
2022-07-29T11:47:51.759Z,3.58
2022-07-29T11:50:32.190Z,3.47
2022-07-29T11:53:00.102Z,3.22
2022-07-29T11:55:32.261Z,3.50
2022-07-29T11:58:04.412Z,3.47
2022-07-29T12:00:49.288Z,3.22
2022-07-29T12:03:34.961Z,3.30
2022-07-29T12:06:04.482Z,3.15
2022-07-29T12:08:41.407Z,3.42
2022-07-29T12:11:16.810Z,3.70
2022-07-29T12:13:43.413Z,3.40
2022-07-29T12:16:10.080Z,4.10
2022-07-29T12:18:41.445Z,4.03
2022-07-29T12:21:09.302Z,3.58
2022-07-29T12:23:39.112Z,3.75
2022-07-29T12:26:07.256Z,3.15
2022-07-29T12:28:38.541Z,3.40
2022-07-29T12:31:05.984Z,4.60
2022-07-29T12:33:32.843Z,3.85
2022-07-29T12:36:15.658Z,3.00
2022-07-29T12:38:44.539Z,3.38
2022-07-29T12:41:11.409Z,3.97
2022-07-29T12:43:38.113Z,3.78
2022-07-29T12:46:15.869Z,3.85
2022-07-29T12:48:44.046Z,3.85
2022-07-29T12:51:12.662Z,3.30
2022-07-29T12:53:39.721Z,3.30
2022-07-29T12:56:26.658Z,4.97
2022-07-29T12:58:54.223Z,3.53
2022-07-29T13:01:21.866Z,3.05
2022-07-29T13:03:56.958Z,3.17
2022-07-29T13:06:35.943Z,3.60
2022-07-29T13:09:19.177Z,3.72
2022-07-29T13:11:48.752Z,3.40
2022-07-29T13:14:32.620Z,3.60
2022-07-29T13:17:05.602Z,3.70
2022-07-29T13:19:47.590Z,3.42
2022-07-29T13:22:24.027Z,5.25
2022-07-29T13:24:55.030Z,3.80
2022-07-29T13:27:27.478Z,3.30
2022-07-29T13:29:57.794Z,3.15
2022-07-29T13:32:28.450Z,3.70
2022-07-29T13:35:01.098Z,4.20
2022-07-29T13:37:30.681Z,3.92
2022-07-29T13:39:58.107Z,3.85
2022-07-29T13:42:25.761Z,4.20
2022-07-29T13:44:52.759Z,3.72
2022-07-29T13:47:20.928Z,4.00
2022-07-29T13:49:47.652Z,4.03
2022-07-29T13:52:14.910Z,3.58
2022-07-29T13:54:42.550Z,3.40
2022-07-29T13:57:11.756Z,4.20
2022-07-29T13:59:39.208Z,4.25
2022-07-29T14:02:06.558Z,4.32
2022-07-29T14:04:34.492Z,4.78
2022-07-29T14:07:03.780Z,3.33
2022-07-29T14:09:41.238Z,3.63
2022-07-29T14:12:08.859Z,3.88
2022-07-29T14:14:37.354Z,4.28
2022-07-29T14:17:04.397Z,3.03
2022-07-29T14:19:33.021Z,3.42
2022-07-29T14:22:00.382Z,3.80
2022-07-29T14:24:27.474Z,3.38
2022-07-29T14:26:54.192Z,3.92
2022-07-29T14:29:20.945Z,3.55
2022-07-29T14:31:47.906Z,3.88
2022-07-29T14:34:16.375Z,3.28
2022-07-29T14:36:43.233Z,3.95
2022-07-29T14:39:09.838Z,3.47
2022-07-29T14:41:36.464Z,3.25
2022-07-29T14:44:03.330Z,4.47
2022-07-29T14:46:30.005Z,3.50
2022-07-29T14:48:56.750Z,4.05
2022-07-29T14:51:23.409Z,3.88
2022-07-29T14:53:54.453Z,3.95
2022-07-29T14:56:46.666Z,3.75
2022-07-29T14:59:12.019Z,3.95
2022-07-29T15:01:43.496Z,3.42
2022-07-29T15:04:10.226Z,3.60
2022-07-29T15:06:38.960Z,4.03
2022-07-29T15:09:05.814Z,3.95
2022-07-29T15:11:32.599Z,4.13
2022-07-29T15:14:05.247Z,4.15
2022-07-29T15:16:31.968Z,3.47
2022-07-29T15:19:01.192Z,3.28
2022-07-29T15:21:28.412Z,3.67
2022-07-29T15:23:55.035Z,3.55
2022-07-29T15:26:21.729Z,3.75
2022-07-29T15:28:48.927Z,4.25
2022-07-29T15:31:15.894Z,3.45
2022-07-29T15:33:42.589Z,3.42
2022-07-29T15:36:09.619Z,3.40
2022-07-29T15:38:41.664Z,3.72
2022-07-29T15:41:09.035Z,3.33
2022-07-29T15:43:36.237Z,4.43
2022-07-29T15:46:21.497Z,3.55
2022-07-29T15:48:48.438Z,3.08
2022-07-29T15:51:15.232Z,3.20
2022-07-29T15:53:41.961Z,3.88
2022-07-29T15:56:08.559Z,3.78
2022-07-29T15:58:35.219Z,3.78
2022-07-29T16:01:01.967Z,4.40
2022-07-29T16:03:28.812Z,4.10
2022-07-29T16:05:55.426Z,4.00
2022-07-29T16:08:22.060Z,3.92
2022-07-29T16:10:51.107Z,4.38
2022-07-29T16:13:18.875Z,3.70
2022-07-29T16:15:45.933Z,3.90
2022-07-29T16:18:30.379Z,3.95
2022-07-29T16:20:57.775Z,4.22
2022-07-29T16:23:24.815Z,4.30
2022-07-29T16:25:59.625Z,3.17
2022-07-29T16:28:27.887Z,3.63
2022-07-29T16:30:54.598Z,4.00
2022-07-29T16:33:21.201Z,3.35
2022-07-29T16:35:47.807Z,4.10
2022-07-29T16:38:14.391Z,3.92
2022-07-29T16:40:41.157Z,3.83
2022-07-29T16:43:07.959Z,3.15
2022-07-29T16:45:46.040Z,3.33
2022-07-29T16:48:18.113Z,3.88
2022-07-29T16:50:45.619Z,4.20
2022-07-29T16:53:12.229Z,4.28
2022-07-29T16:55:38.853Z,4.43
2022-07-29T16:58:09.618Z,4.18
2022-07-29T17:00:36.590Z,4.78
2022-07-29T17:03:03.427Z,4.53
2022-07-29T17:05:30.111Z,5.15
2022-07-29T17:08:16.770Z,4.68
2022-07-29T17:10:43.432Z,4.57
2022-07-29T17:13:10.101Z,4.53
2022-07-29T17:15:36.728Z,4.13
2022-07-29T17:18:12.322Z,4.32
2022-07-29T17:20:40.889Z,4.70
2022-07-29T17:23:07.722Z,4.88
2022-07-29T17:25:34.395Z,5.45
2022-07-29T17:28:01.935Z,4.20
2022-07-29T17:30:29.597Z,3.92
2022-07-29T17:32:56.289Z,4.15
2022-07-29T17:35:41.401Z,4.53
2022-07-29T17:40:34.870Z,5.43
2022-07-29T17:43:01.498Z,4.13
2022-07-29T17:45:49.627Z,4.20
2022-07-29T17:48:14.756Z,4.50
2022-07-29T17:50:41.409Z,5.20
2022-07-29T17:53:09.588Z,4.93
2022-07-29T17:55:48.585Z,5.60
2022-07-29T17:58:15.878Z,5.32
2022-07-29T18:00:42.846Z,5.70
2022-07-29T18:03:09.668Z,5.05
2022-07-29T18:05:36.356Z,5.47
2022-07-29T18:08:02.931Z,5.20
2022-07-29T18:10:30.306Z,5.90
2022-07-29T18:12:57.016Z,4.93
2022-07-29T18:15:23.588Z,4.88
2022-07-29T18:17:57.086Z,4.80
2022-07-29T18:20:27.944Z,6.05
2022-07-29T18:22:54.912Z,8.00
2022-07-29T18:25:22.164Z,6.05
2022-07-29T18:27:48.734Z,5.25
2022-07-29T18:30:15.482Z,5.32
2022-07-29T18:32:59.082Z,5.47
2022-07-29T18:35:30.045Z,5.55
2022-07-29T18:38:01.980Z,5.53
2022-07-29T18:40:29.769Z,5.38
2022-07-29T18:42:56.557Z,5.85
2022-07-29T18:45:23.287Z,6.57
2022-07-29T18:47:56.691Z,5.70
2022-07-29T18:50:28.961Z,5.30
2022-07-29T18:52:58.369Z,5.38
2022-07-29T18:55:25.998Z,5.82
2022-07-29T18:57:54.671Z,6.07
2022-07-29T19:00:25.190Z,6.30
2022-07-29T19:02:52.755Z,6.00
2022-07-29T19:05:19.690Z,7.28
2022-07-29T19:07:46.233Z,6.35
2022-07-29T19:10:13.636Z,7.20
2022-07-29T19:12:40.370Z,6.72
2022-07-29T19:15:10.328Z,5.97
2022-07-29T19:17:37.062Z,5.22
2022-07-29T19:20:04.071Z,6.07
2022-07-29T19:22:31.112Z,7.05
2022-07-29T19:24:57.770Z,5.68
2022-07-29T19:27:24.526Z,5.57
2022-07-29T19:29:51.168Z,5.47
2022-07-29T19:32:24.701Z,5.15
2022-07-29T19:35:10.688Z,5.22
2022-07-29T19:37:37.556Z,5.40
2022-07-29T19:40:06.023Z,5.88
2022-07-29T19:42:32.593Z,5.57
2022-07-29T19:45:03.753Z,7.07
2022-07-29T19:47:30.803Z,6.18
2022-07-29T19:49:58.235Z,5.25
2022-07-29T19:52:24.870Z,5.50
2022-07-29T19:54:51.531Z,5.40
2022-07-29T19:57:18.162Z,5.25
2022-07-29T19:59:44.786Z,7.10
2022-07-29T20:02:12.455Z,5.40
2022-07-29T20:04:39.805Z,5.00
2022-07-29T20:07:06.795Z,6.40
2022-07-29T20:09:33.574Z,4.75
2022-07-29T20:12:00.403Z,6.05
2022-07-29T20:14:26.973Z,4.82
2022-07-29T20:16:56.083Z,5.10
2022-07-29T20:19:22.693Z,5.43
2022-07-29T20:21:50.714Z,5.45
2022-07-29T20:24:18.406Z,5.13
2022-07-29T20:26:44.976Z,5.13
2022-07-29T20:29:11.603Z,5.85
2022-07-29T20:31:38.235Z,4.85
2022-07-29T20:34:04.982Z,5.25
2022-07-29T20:36:31.709Z,4.93
2022-07-29T20:38:59.997Z,4.93
2022-07-29T20:41:26.986Z,5.82
2022-07-29T20:43:53.581Z,5.35
2022-07-29T20:46:20.216Z,5.78
2022-07-29T20:48:47.294Z,5.43
2022-07-29T20:51:14.538Z,5.53
2022-07-29T20:53:41.653Z,6.35
2022-07-29T20:56:08.631Z,5.63
2022-07-29T20:58:36.422Z,6.00
2022-07-29T21:01:04.300Z,5.50
2022-07-29T21:03:31.066Z,5.88
2022-07-29T21:05:57.621Z,6.55
2022-07-29T21:08:24.550Z,6.60
2022-07-29T21:10:51.226Z,6.15
2022-07-29T21:13:18.623Z,5.63
2022-07-29T21:15:49.224Z,6.53
2022-07-29T21:18:27.103Z,5.32
2022-07-29T21:20:54.843Z,5.07
2022-07-29T21:23:21.510Z,5.18
2022-07-29T21:25:48.140Z,6.45
2022-07-29T21:28:27.039Z,6.40
2022-07-29T21:30:55.616Z,5.72
2022-07-29T21:33:22.823Z,6.25
2022-07-29T21:38:36.612Z,6.28
2022-07-29T21:41:04.551Z,5.47
2022-07-29T21:43:31.426Z,6.05
2022-07-29T21:45:59.827Z,5.65
2022-07-29T21:48:27.806Z,6.65
2022-07-29T21:50:54.834Z,5.80
2022-07-29T21:53:22.141Z,5.55
2022-07-29T21:55:55.442Z,5.60
2022-07-29T21:58:22.974Z,6.03
2022-07-29T22:00:52.567Z,5.30
2022-07-29T22:03:19.181Z,5.93
2022-07-29T22:05:45.968Z,6.40
2022-07-29T22:08:13.544Z,6.05
2022-07-29T22:10:40.150Z,6.07
2022-07-29T22:13:06.831Z,6.60
2022-07-29T22:15:33.746Z,6.55
2022-07-29T22:18:00.531Z,5.55
2022-07-29T22:20:27.500Z,5.25
2022-07-29T22:22:54.209Z,5.60
2022-07-29T22:25:21.244Z,5.55
2022-07-29T22:27:47.978Z,5.65
2022-07-29T22:30:14.619Z,6.03
2022-07-29T22:32:41.412Z,5.05
2022-07-29T22:35:08.341Z,5.00
2022-07-29T22:37:35.116Z,5.45
2022-07-29T22:40:01.985Z,5.65
2022-07-29T22:42:28.636Z,5.18
2022-07-29T22:44:55.466Z,5.22
2022-07-29T22:47:46.537Z,5.45
2022-07-29T22:50:08.952Z,5.07
2022-07-29T22:52:35.536Z,4.80
2022-07-29T22:55:03.696Z,5.75
2022-07-29T22:57:30.343Z,4.90
2022-07-29T22:59:57.223Z,5.82
2022-07-29T23:02:23.836Z,5.18
2022-07-29T23:04:50.430Z,5.43
2022-07-29T23:07:17.631Z,5.50
2022-07-29T23:09:44.271Z,5.45
2022-07-29T23:12:10.850Z,6.07
2022-07-29T23:14:37.799Z,5.57
2022-07-29T23:17:04.968Z,5.13
2022-07-29T23:19:31.764Z,5.80
2022-07-29T23:21:58.393Z,5.30
2022-07-29T23:24:24.952Z,5.65
2022-07-29T23:26:51.520Z,5.93
2022-07-29T23:29:18.107Z,6.30
2022-07-29T23:31:48.024Z,5.28
2022-07-29T23:34:15.071Z,5.20
2022-07-29T23:36:42.453Z,5.40
2022-07-29T23:39:13.286Z,5.93
2022-07-29T23:41:40.233Z,5.78
2022-07-29T23:44:07.016Z,5.97
2022-07-29T23:46:33.807Z,6.30
2022-07-29T23:49:00.575Z,5.95
2022-07-29T23:51:29.141Z,5.88
2022-07-29T23:53:56.205Z,5.47
2022-07-29T23:56:23.436Z,5.57
2022-07-29T23:58:50.195Z,5.95
